createdAt,value
2019-05-19T00:01:03.084Z,84.35
2019-05-19T00:02:12.794Z,84.55
2019-05-19T00:03:22.497Z,85.02
2019-05-19T00:04:31.958Z,85.31
2019-05-19T00:05:41.915Z,85.31
2019-05-19T00:06:51.680Z,85.88
2019-05-19T00:08:01.433Z,85.31
2019-05-19T00:09:11.410Z,85.41
2019-05-19T00:10:24.246Z,85.5
2019-05-19T00:11:33.983Z,85.69
2019-05-19T00:12:43.706Z,86.08
2019-05-19T00:13:53.427Z,86.27
2019-05-19T00:15:03.393Z,86.17
2019-05-19T00:16:13.086Z,86.36
2019-05-19T00:17:23.048Z,85.36
2019-05-19T00:18:32.803Z,85.98
2019-05-19T00:19:42.522Z,85.55
2019-05-19T00:20:52.553Z,86.46
2019-05-19T00:22:02.488Z,86.61
2019-05-19T00:23:12.194Z,86.51
2019-05-19T00:24:21.903Z,86.51
2019-05-19T00:25:31.646Z,86.61
2019-05-19T00:26:41.681Z,85.84
2019-05-19T00:27:51.646Z,84.69
2019-05-19T00:29:01.360Z,85.75
2019-05-19T00:30:11.323Z,86.41
2019-05-19T00:31:21.293Z,86.61
2019-05-19T00:32:31.005Z,87.08
2019-05-19T00:33:40.723Z,87.85
2019-05-19T00:34:50.668Z,88.13
2019-05-19T00:36:00.116Z,88.23
2019-05-19T00:37:09.592Z,88.62
2019-05-19T00:38:19.348Z,88.23
2019-05-19T00:39:29.070Z,87.95
2019-05-19T00:40:39.089Z,87.08
2019-05-19T00:41:48.829Z,87.18
2019-05-19T00:42:58.802Z,87.08
2019-05-19T00:44:08.536Z,87.18
2019-05-19T00:45:18.494Z,86.37
2019-05-19T00:46:28.186Z,86.47
2019-05-19T00:47:38.154Z,86.57
2019-05-19T00:48:48.109Z,87.43
2019-05-19T00:49:58.072Z,88.38
2019-05-19T00:51:08.074Z,88.48
2019-05-19T00:52:18.057Z,86.94
2019-05-19T00:53:27.811Z,88.57
2019-05-19T00:54:37.764Z,88.86
2019-05-19T00:55:47.740Z,88.48
2019-05-19T00:56:57.694Z,88.76
2019-05-19T00:58:07.150Z,88.76
2019-05-19T00:59:17.104Z,88.38
2019-05-19T01:00:26.814Z,87.62
2019-05-19T01:01:36.791Z,88.29
2019-05-19T01:02:46.792Z,88.76
2019-05-19T01:03:56.732Z,89.34
2019-05-19T01:05:06.456Z,88
2019-05-19T01:06:16.155Z,88.95
2019-05-19T01:07:26.108Z,89.43
2019-05-19T01:08:36.072Z,88.91
2019-05-19T01:09:46.028Z,89.24
2019-05-19T01:10:55.738Z,88.53
2019-05-19T01:12:05.714Z,89.39
2019-05-19T01:13:15.791Z,89.1
2019-05-19T01:14:25.504Z,89.48
2019-05-19T01:15:35.200Z,90.25
2019-05-19T01:16:44.652Z,90.25
2019-05-19T01:17:54.645Z,90.73
2019-05-19T01:19:04.606Z,90.82
2019-05-19T01:20:14.590Z,90.92
2019-05-19T01:21:24.545Z,91.3
2019-05-19T01:22:34.265Z,91.11
2019-05-19T01:23:44.237Z,91.68
2019-05-19T01:24:53.718Z,91.39
2019-05-19T01:26:03.450Z,92.07
2019-05-19T01:27:13.427Z,91.78
2019-05-19T01:28:23.387Z,91.59
2019-05-19T01:29:33.341Z,92.35
2019-05-19T01:30:43.291Z,91.78
2019-05-19T01:31:52.991Z,92.16
2019-05-19T01:33:02.746Z,92.16
2019-05-19T01:34:12.446Z,92.25
2019-05-19T01:35:21.895Z,91.68
2019-05-19T01:36:31.589Z,91.83
2019-05-19T01:37:41.369Z,92.11
2019-05-19T01:38:51.077Z,92.69
2019-05-19T01:40:01.046Z,91.64
2019-05-19T01:41:11.037Z,91.35
2019-05-19T01:42:20.485Z,91.83
2019-05-19T01:43:30.452Z,91.64
2019-05-19T01:44:40.408Z,91.54
2019-05-19T01:45:50.160Z,91.54
2019-05-19T01:46:59.859Z,92.11
2019-05-19T01:48:09.560Z,92.4
2019-05-19T01:49:19.266Z,92.79
2019-05-19T01:50:29.236Z,92.4
2019-05-19T01:51:38.931Z,91.64
2019-05-19T01:52:48.416Z,92.21
2019-05-19T01:53:58.382Z,92.88
2019-05-19T01:55:08.351Z,92.5
2019-05-19T01:56:18.058Z,93.07
2019-05-19T01:57:28.012Z,93.36
2019-05-19T01:58:37.973Z,93.93
2019-05-19T01:59:47.675Z,93.65
2019-05-19T02:00:57.694Z,93.93
2019-05-19T02:02:07.695Z,94.07
2019-05-19T02:03:17.694Z,93.93
2019-05-19T02:04:27.663Z,93.7
2019-05-19T02:05:37.377Z,92.26
2019-05-19T02:06:47.345Z,93.31
2019-05-19T02:07:57.314Z,93.74
2019-05-19T02:09:06.771Z,93.45
2019-05-19T02:10:16.726Z,94.07
2019-05-19T02:11:26.743Z,93.41
2019-05-19T02:12:36.801Z,93.6
2019-05-19T02:13:46.769Z,93.88
2019-05-19T02:14:56.751Z,93.79
2019-05-19T02:16:06.462Z,94.55
2019-05-19T02:17:16.437Z,94.36
2019-05-19T02:18:26.135Z,92.26
2019-05-19T02:19:36.090Z,92.55
2019-05-19T02:20:46.073Z,93.7
2019-05-19T02:21:56.025Z,93.7
2019-05-19T02:23:05.988Z,94.55
2019-05-19T02:24:15.496Z,94.46
2019-05-19T02:25:25.499Z,93.88
2019-05-19T02:26:35.457Z,95.03
2019-05-19T02:27:45.437Z,94.93
2019-05-19T02:28:55.387Z,93.98
2019-05-19T02:30:05.554Z,94.55
2019-05-19T02:31:15.544Z,94.84
2019-05-19T02:32:25.014Z,95.03
2019-05-19T02:33:38.145Z,94.84
2019-05-19T02:34:48.110Z,94.46
2019-05-19T02:35:57.853Z,94.51
2019-05-19T02:37:07.325Z,95.22
2019-05-19T02:38:17.289Z,95.36
2019-05-19T02:39:27.024Z,95.17
2019-05-19T02:40:36.983Z,95.17
2019-05-19T02:41:46.693Z,94.7
2019-05-19T02:42:56.718Z,94.79
2019-05-19T02:44:06.507Z,94.51
2019-05-19T02:45:16.233Z,94.7
2019-05-19T02:46:25.954Z,95.17
2019-05-19T02:47:35.932Z,96.03
2019-05-19T02:48:45.927Z,96.7
2019-05-19T02:49:55.869Z,96.03
2019-05-19T02:51:05.642Z,96.51
2019-05-19T02:52:15.626Z,96.03
2019-05-19T02:53:25.350Z,96.32
2019-05-19T02:54:35.073Z,96.42
2019-05-19T02:55:44.787Z,96.32
2019-05-19T02:56:54.255Z,97.18
2019-05-19T02:58:04.284Z,96.98
2019-05-19T02:59:14.266Z,96.98
2019-05-19T03:00:24.257Z,97.47
2019-05-19T03:01:34.243Z,96.8
2019-05-19T03:02:44.243Z,97.18
2019-05-19T03:03:54.205Z,97.56
2019-05-19T03:05:04.199Z,97.08
2019-05-19T03:06:13.933Z,96.89
2019-05-19T03:07:23.922Z,96.89
2019-05-19T03:08:33.895Z,96.61
2019-05-19T03:09:43.862Z,97.08
2019-05-19T03:10:53.862Z,97.22
2019-05-19T03:12:03.355Z,97.08
2019-05-19T03:13:13.363Z,97.56
2019-05-19T03:14:23.318Z,97.99
2019-05-19T03:15:32.902Z,97.51
2019-05-19T03:16:42.616Z,98.23
2019-05-19T03:17:52.571Z,97.71
2019-05-19T03:19:02.535Z,97.94
2019-05-19T03:20:11.996Z,98.13
2019-05-19T03:21:21.742Z,97.94
2019-05-19T03:22:31.728Z,98.13
2019-05-19T03:23:41.496Z,98.32
2019-05-19T03:24:51.517Z,97.94
2019-05-19T03:26:00.969Z,97.94
2019-05-19T03:27:10.712Z,98.18
2019-05-19T03:28:20.679Z,98.32
2019-05-19T03:29:30.661Z,98.47
2019-05-19T03:30:40.379Z,98.18
2019-05-19T03:31:50.432Z,98.18
2019-05-19T03:33:00.211Z,98.66
2019-05-19T03:34:09.719Z,99.37
2019-05-19T03:35:19.860Z,99.42
2019-05-19T03:36:29.680Z,98.75
2019-05-19T03:37:39.408Z,98.99
2019-05-19T03:38:49.129Z,99.52
2019-05-19T03:39:58.936Z,99.37
2019-05-19T03:41:08.902Z,99.52
2019-05-19T03:42:18.904Z,99.61
2019-05-19T03:43:28.867Z,99.13
2019-05-19T03:44:38.578Z,99.71
2019-05-19T03:45:48.032Z,99.8
2019-05-19T03:46:57.996Z,99.42
2019-05-19T03:48:07.954Z,99.47
2019-05-19T03:49:17.732Z,99.37
2019-05-19T03:50:27.700Z,99.42
2019-05-19T03:51:37.294Z,99.23
2019-05-19T03:52:47.017Z,99.8
2019-05-19T03:53:56.990Z,99.32
2019-05-19T03:55:06.962Z,99.47
2019-05-19T03:56:17.022Z,99.66
2019-05-19T03:57:27.007Z,99.71
2019-05-19T03:58:36.725Z,99.66
2019-05-19T03:59:46.705Z,99.37
2019-05-19T04:00:56.686Z,99.99
2019-05-19T04:02:06.670Z,99.99
2019-05-19T04:03:16.760Z,99.76
2019-05-19T04:04:26.517Z,99.61
2019-05-19T04:05:36.344Z,99.47
2019-05-19T04:06:45.847Z,99.32
2019-05-19T04:07:55.565Z,99.37
2019-05-19T04:09:05.540Z,99.47
2019-05-19T04:10:15.495Z,99.85
2019-05-19T04:11:25.221Z,99.85
2019-05-19T04:12:35.185Z,99.76
2019-05-19T04:13:44.910Z,99.76
2019-05-19T04:14:54.893Z,99.57
2019-05-19T04:16:04.905Z,99.99
2019-05-19T04:17:14.899Z,99.99
2019-05-19T04:18:24.648Z,99.85
2019-05-19T04:19:34.653Z,99.99
2019-05-19T04:20:44.375Z,99.99
2019-05-19T04:21:54.336Z,99.99
2019-05-19T04:23:04.291Z,99.99
2019-05-19T04:24:14.005Z,99.76
2019-05-19T04:25:23.998Z,99.99
2019-05-19T04:26:33.727Z,99.99
2019-05-19T04:27:43.443Z,99.47
2019-05-19T04:28:53.443Z,99.66
2019-05-19T04:30:03.527Z,99.85
2019-05-19T04:31:13.597Z,99.99
2019-05-19T04:32:23.579Z,99.99
2019-05-19T04:33:33.545Z,99.47
2019-05-19T04:34:43.502Z,99.99
2019-05-19T04:35:57.203Z,99.99
2019-05-19T04:37:07.364Z,99.99
2019-05-19T04:38:17.068Z,99.66
2019-05-19T04:39:27.071Z,99.85
2019-05-19T04:40:37.037Z,99.62
2019-05-19T04:41:47.015Z,99.43
2019-05-19T04:42:57.006Z,99.43
2019-05-19T04:44:06.997Z,99.9
2019-05-19T04:45:16.702Z,99.71
2019-05-19T04:46:26.670Z,99.9
2019-05-19T04:47:36.659Z,99.14
2019-05-19T04:48:46.394Z,99.43
2019-05-19T04:49:55.882Z,99.23
2019-05-19T04:51:05.609Z,98.94
2019-05-19T04:52:15.459Z,98.85
2019-05-19T04:53:25.181Z,98.85
2019-05-19T04:54:35.165Z,98.37
2019-05-19T04:55:45.147Z,97.89
2019-05-19T04:56:55.101Z,97.99
2019-05-19T04:58:05.052Z,98.23
2019-05-19T04:59:14.768Z,98.23
2019-05-19T05:00:24.734Z,98.33
2019-05-19T05:01:34.475Z,97.37
2019-05-19T05:02:44.181Z,97.66
2019-05-19T05:03:53.927Z,96.99
2019-05-19T05:05:04.063Z,97.37
2019-05-19T05:06:14.035Z,97.08
2019-05-19T05:07:23.787Z,96.22
2019-05-19T05:08:33.775Z,96.32
2019-05-19T05:09:43.752Z,96.51
2019-05-19T05:10:53.455Z,96.03
2019-05-19T05:12:03.431Z,95.7
2019-05-19T05:13:13.146Z,94.93
2019-05-19T05:14:23.153Z,94.26
2019-05-19T05:15:33.154Z,94.36
2019-05-19T05:16:42.976Z,94.26
2019-05-19T05:17:52.967Z,93.88
2019-05-19T05:19:02.688Z,93.69
2019-05-19T05:20:12.646Z,93.69
2019-05-19T05:21:22.362Z,92.93
2019-05-19T05:22:32.308Z,92.93
2019-05-19T05:23:41.998Z,92.93
2019-05-19T05:24:51.686Z,92.74
2019-05-19T05:26:00.912Z,91.88
2019-05-19T05:27:10.637Z,91.39
2019-05-19T05:28:20.350Z,91.39
2019-05-19T05:29:30.050Z,90.77
2019-05-19T05:30:39.746Z,90.48
2019-05-19T05:31:49.438Z,90.2
2019-05-19T05:32:59.139Z,90.39
2019-05-19T05:34:08.844Z,89.91
2019-05-19T05:35:18.117Z,89.72
2019-05-19T05:36:30.305Z,89.81
2019-05-19T05:37:39.756Z,90.39
2019-05-19T05:38:49.734Z,89.53
2019-05-19T05:39:59.434Z,89.53
2019-05-19T05:41:08.953Z,89.72
2019-05-19T05:42:18.904Z,89.91
2019-05-19T05:43:28.883Z,89.81
2019-05-19T05:44:38.844Z,89.24
2019-05-19T05:45:48.812Z,89.05
2019-05-19T05:46:58.757Z,89.24
2019-05-19T05:48:08.724Z,88.57
2019-05-19T05:49:18.456Z,88.9
2019-05-19T05:50:28.449Z,88.48
2019-05-19T05:51:37.923Z,88.95
2019-05-19T05:52:47.883Z,88.9
2019-05-19T05:53:57.589Z,88.62
2019-05-19T05:55:07.291Z,88.71
2019-05-19T05:56:16.996Z,88.9
2019-05-19T05:57:26.940Z,88.43
2019-05-19T05:58:36.459Z,88.71
2019-05-19T05:59:46.418Z,88.52
2019-05-19T06:00:56.391Z,88.04
2019-05-19T06:02:06.134Z,88.71
2019-05-19T06:03:15.874Z,88.62
2019-05-19T06:04:25.860Z,87.95
2019-05-19T06:05:35.865Z,87.76
2019-05-19T06:06:48.277Z,87.47
2019-05-19T06:07:58.234Z,87.95
2019-05-19T06:09:07.938Z,87.56
2019-05-19T06:10:17.924Z,87.37
2019-05-19T06:11:27.881Z,87.47
2019-05-19T06:12:37.611Z,87.27
2019-05-19T06:13:49.503Z,87.76
2019-05-19T06:14:59.715Z,87.27
2019-05-19T06:16:09.172Z,86.84
2019-05-19T06:17:19.174Z,87.13
2019-05-19T06:18:28.891Z,87.23
2019-05-19T06:19:38.606Z,86.46
2019-05-19T06:20:47.592Z,85.98
2019-05-19T06:21:57.539Z,86.27
2019-05-19T06:23:07.480Z,85.98
2019-05-19T06:24:17.463Z,86.08
2019-05-19T06:25:27.539Z,85.21
2019-05-19T06:26:37.804Z,85.12
2019-05-19T06:27:47.760Z,85.6
2019-05-19T06:28:57.477Z,85.02
2019-05-19T06:30:10.796Z,84.97
2019-05-19T06:31:20.747Z,85.16
2019-05-19T06:32:30.463Z,85.35
2019-05-19T06:33:39.920Z,85.35
2019-05-19T06:34:49.883Z,85.25
2019-05-19T06:35:59.911Z,85.45
2019-05-19T06:37:09.643Z,84.58
2019-05-19T06:38:19.604Z,84.2
2019-05-19T06:39:29.314Z,83.92
2019-05-19T06:40:39.035Z,83.92
2019-05-19T06:41:48.979Z,84.11
2019-05-19T06:42:58.950Z,84.49
2019-05-19T06:44:08.921Z,84.49
2019-05-19T06:45:18.897Z,83.82
2019-05-19T06:46:29.122Z,84.39
2019-05-19T06:47:39.094Z,84.01
2019-05-19T06:48:48.554Z,83.92
2019-05-19T06:49:58.279Z,83.58
2019-05-19T06:51:08.252Z,83.86
2019-05-19T06:52:18.219Z,84.01
2019-05-19T06:53:27.976Z,84.2
2019-05-19T06:54:37.686Z,83.72
2019-05-19T06:55:47.641Z,83.09
2019-05-19T06:56:57.362Z,82.9
2019-05-19T06:58:07.075Z,82.71
2019-05-19T06:59:16.788Z,82.62
2019-05-19T07:00:26.812Z,82.71
2019-05-19T07:01:36.513Z,82.52
2019-05-19T07:02:46.485Z,82.42
2019-05-19T07:03:55.967Z,82.23
2019-05-19T07:05:05.444Z,81.56
2019-05-19T07:06:15.152Z,81.6
2019-05-19T07:07:24.905Z,81.51
2019-05-19T07:08:34.889Z,80.45
2019-05-19T07:09:59.767Z,80.16
2019-05-19T07:11:09.743Z,80.55
2019-05-19T07:12:19.465Z,79.49
2019-05-19T07:13:29.162Z,79.59
2019-05-19T07:14:39.133Z,79.11
2019-05-19T07:15:48.846Z,78.77
2019-05-19T07:16:58.589Z,78.25
2019-05-19T07:18:08.309Z,77.8
2019-05-19T07:19:18.018Z,77.42
2019-05-19T07:20:27.503Z,77.42
2019-05-19T07:21:37.257Z,77.13
2019-05-19T07:22:47.210Z,75.89
2019-05-19T07:23:56.960Z,76.37
2019-05-19T07:25:06.932Z,76.17
2019-05-19T07:26:16.659Z,75.98
2019-05-19T07:27:26.367Z,76.07
2019-05-19T07:28:36.090Z,75.21
2019-05-19T07:29:46.286Z,75.45
2019-05-19T07:30:56.264Z,75.06
2019-05-19T07:32:06.016Z,75.15
2019-05-19T07:33:16.009Z,75.25
2019-05-19T07:34:25.712Z,73.62
2019-05-19T07:35:35.785Z,73.81
2019-05-19T07:36:45.766Z,73.43
2019-05-19T07:37:55.734Z,72.99
2019-05-19T07:39:05.730Z,72.79
2019-05-19T07:40:15.683Z,72.69
2019-05-19T07:41:25.695Z,72.89
2019-05-19T07:42:35.407Z,72.99
2019-05-19T07:43:45.117Z,73.46
2019-05-19T07:44:55.061Z,73.46
2019-05-19T07:46:05.031Z,72.89
2019-05-19T07:47:14.977Z,71.19
2019-05-19T07:48:24.689Z,71.67
2019-05-19T07:49:34.134Z,71.58
2019-05-19T07:50:43.585Z,70.81
2019-05-19T07:51:52.789Z,70.62
2019-05-19T07:53:02.785Z,70.72
2019-05-19T07:54:12.768Z,70.33
2019-05-19T07:55:22.485Z,69.89
2019-05-19T07:56:32.501Z,69.69
2019-05-19T07:57:42.483Z,68.35
2019-05-19T07:58:52.206Z,69.4
2019-05-19T08:00:02.205Z,68.63
2019-05-19T08:01:12.414Z,69.4
2019-05-19T08:02:22.261Z,68.54
2019-05-19T08:03:32.258Z,68.63
2019-05-19T08:04:42.471Z,67
2019-05-19T08:05:51.974Z,66.65
2019-05-19T08:07:04.703Z,66.94
2019-05-19T08:08:14.696Z,66.46
2019-05-19T08:09:24.406Z,65.91
2019-05-19T08:10:34.133Z,65.43
2019-05-19T08:11:44.134Z,64.37
2019-05-19T08:12:54.119Z,64.18
2019-05-19T08:14:03.840Z,64.5
2019-05-19T08:15:13.793Z,64.59
2019-05-19T08:16:23.774Z,64.21
2019-05-19T08:17:33.534Z,64.21
2019-05-19T08:18:43.259Z,63.64
2019-05-19T08:19:53.233Z,63.64
2019-05-19T08:21:02.943Z,63.47
2019-05-19T08:22:12.899Z,63.76
2019-05-19T08:23:22.629Z,62.8
2019-05-19T08:24:32.080Z,62.32
2019-05-19T08:25:41.843Z,61.45
2019-05-19T08:26:51.837Z,60.2
2019-05-19T08:28:11.029Z,61.07
2019-05-19T08:29:20.984Z,60.2
2019-05-19T08:30:31.014Z,59.62
2019-05-19T08:31:40.984Z,60.03
2019-05-19T08:32:50.789Z,60.03
2019-05-19T08:34:01.076Z,59.45
2019-05-19T08:35:11.153Z,58.88
2019-05-19T08:36:21.157Z,58.4
2019-05-19T08:37:30.863Z,57.72
2019-05-19T08:38:40.784Z,58.2
2019-05-19T08:39:50.739Z,58.78
2019-05-19T08:41:00.797Z,58.42
2019-05-19T08:42:10.996Z,58.52
2019-05-19T08:43:20.976Z,57.75
2019-05-19T08:44:30.936Z,58.42
2019-05-19T08:45:40.913Z,57.97
2019-05-19T08:46:50.619Z,58.07
2019-05-19T08:48:00.327Z,57.97
2019-05-19T08:49:09.826Z,57.39
2019-05-19T08:50:19.790Z,57.1
2019-05-19T08:51:29.741Z,56.81
2019-05-19T08:52:39.742Z,56.72
2019-05-19T08:53:49.716Z,56.74
2019-05-19T08:54:59.472Z,56.94
2019-05-19T08:56:08.971Z,56.74
2019-05-19T08:57:18.957Z,56.26
2019-05-19T08:58:28.963Z,56.84
2019-05-19T08:59:38.928Z,56.26
2019-05-19T09:00:48.885Z,55.49
2019-05-19T09:01:58.620Z,54.46
2019-05-19T09:03:08.407Z,54.29
2019-05-19T09:04:18.150Z,53.45
2019-05-19T09:05:27.874Z,52.22
2019-05-19T09:06:37.341Z,51.25
2019-05-19T09:07:47.044Z,51.28
2019-05-19T09:08:56.506Z,50.04
2019-05-19T09:10:06.224Z,49.19
2019-05-19T09:11:16.210Z,49
2019-05-19T09:12:26.183Z,47.47
2019-05-19T09:13:35.988Z,47.2
2019-05-19T09:14:46.006Z,46.14
2019-05-19T09:15:55.980Z,45.1
2019-05-19T09:17:06.098Z,44.92
2019-05-19T09:18:15.883Z,45.21
2019-05-19T09:19:25.656Z,44.56
2019-05-19T09:20:35.621Z,43.51
2019-05-19T09:21:45.610Z,43.54
2019-05-19T09:22:55.319Z,42.66
2019-05-19T09:24:05.293Z,41.61
2019-05-19T09:25:14.743Z,41.71
2019-05-19T09:26:24.744Z,41.13
2019-05-19T09:27:34.728Z,40.66
2019-05-19T09:28:44.706Z,40.75
2019-05-19T09:29:54.455Z,40.29
2019-05-19T09:31:04.206Z,39.34
2019-05-19T09:32:14.174Z,38.56
2019-05-19T09:33:23.902Z,38.28
2019-05-19T09:34:33.644Z,38.01
2019-05-19T09:35:43.650Z,37.52
2019-05-19T09:36:53.614Z,37.05
2019-05-19T09:38:03.087Z,36.78
2019-05-19T09:39:13.298Z,35.9
2019-05-19T09:40:26.135Z,35.35
2019-05-19T09:41:36.632Z,35.45
2019-05-19T09:42:46.611Z,34.57
2019-05-19T09:43:56.985Z,33.9
2019-05-19T09:45:06.986Z,33.82
2019-05-19T09:46:17.081Z,33.62
2019-05-19T09:47:26.795Z,33.64
2019-05-19T09:48:36.571Z,33.84
2019-05-19T09:49:46.551Z,33.17
2019-05-19T09:50:56.300Z,32.58
2019-05-19T09:52:06.296Z,31.91
2019-05-19T09:53:19.945Z,32.7
2019-05-19T09:54:42.693Z,32.12
2019-05-19T09:55:54.076Z,31.55
2019-05-19T09:57:03.778Z,30.98
2019-05-19T09:58:16.974Z,30.99
2019-05-19T09:59:29.755Z,30.6
2019-05-19T10:00:39.490Z,30.5
2019-05-19T10:01:48.975Z,30.22
2019-05-19T10:02:58.749Z,29.73
2019-05-19T10:04:09.581Z,29.93
2019-05-19T10:05:19.543Z,30.04
2019-05-19T10:06:29.513Z,29.35
2019-05-19T10:07:39.059Z,29.25
2019-05-19T10:08:49.047Z,28.96
2019-05-19T10:09:58.779Z,28.78
2019-05-19T10:11:08.799Z,28.88
2019-05-19T10:12:18.503Z,29.37
2019-05-19T10:13:28.224Z,29.24
2019-05-19T10:14:40.739Z,29.06
2019-05-19T10:15:50.712Z,28.96
2019-05-19T10:17:00.575Z,28.39
2019-05-19T10:18:10.123Z,28.09
2019-05-19T10:19:20.090Z,29.07
2019-05-19T10:20:30.070Z,28.78
2019-05-19T10:21:40.043Z,28.09
2019-05-19T10:22:50.048Z,28.58
2019-05-19T10:23:59.756Z,28.5
2019-05-19T10:25:24.005Z,27.61
2019-05-19T10:26:33.888Z,27.34
2019-05-19T10:27:44.017Z,26.77
2019-05-19T10:28:54.049Z,26.77
2019-05-19T10:30:03.764Z,26.97
2019-05-19T10:31:13.767Z,26.77
2019-05-19T10:32:23.760Z,27.15
2019-05-19T10:33:33.464Z,25.96
2019-05-19T10:34:43.182Z,25.6
2019-05-19T10:35:53.149Z,26.48
2019-05-19T10:37:03.124Z,26.46
2019-05-19T10:38:13.292Z,26.85
2019-05-19T10:39:25.545Z,26.75
2019-05-19T10:40:35.262Z,26.08
2019-05-19T10:41:45.241Z,25.5
2019-05-19T10:42:55.198Z,24.82
2019-05-19T10:44:04.926Z,24.84
2019-05-19T10:45:14.908Z,24.64
2019-05-19T10:46:24.914Z,24.16
2019-05-19T10:47:34.951Z,24.45
2019-05-19T10:48:44.923Z,25.03
2019-05-19T10:49:54.893Z,24.63
2019-05-19T10:51:04.610Z,25.01
2019-05-19T10:52:14.085Z,25.59
2019-05-19T10:53:24.125Z,25.57
2019-05-19T10:54:34.199Z,26.62
2019-05-19T10:55:44.210Z,27.19
2019-05-19T10:56:53.665Z,27.18
2019-05-19T10:58:03.384Z,28.54
2019-05-19T10:59:13.148Z,28.82
2019-05-19T11:00:22.626Z,29.21
2019-05-19T11:01:32.349Z,29.1
2019-05-19T11:02:42.065Z,29.68
2019-05-19T11:03:51.789Z,29.97
2019-05-19T11:05:01.867Z,29.95
2019-05-19T11:06:14.003Z,30.23
2019-05-19T11:07:24.001Z,30.9
2019-05-19T11:08:33.719Z,31.57
2019-05-19T11:09:43.860Z,31.36
2019-05-19T11:10:53.842Z,31.95
2019-05-19T11:12:03.336Z,32.24
2019-05-19T11:13:13.328Z,31.74
2019-05-19T11:14:23.058Z,32.23
2019-05-19T11:15:32.759Z,33.38
2019-05-19T11:16:42.483Z,32.03
2019-05-19T11:17:52.462Z,31.36
2019-05-19T11:19:02.168Z,31.2
2019-05-19T11:20:12.132Z,30.8
2019-05-19T11:21:22.222Z,30.04
2019-05-19T11:22:32.184Z,29.07
2019-05-19T11:23:41.898Z,29.17
2019-05-19T11:24:51.603Z,29.06
2019-05-19T11:26:01.585Z,28.97
2019-05-19T11:27:12.555Z,29.25
2019-05-19T11:28:22.022Z,29.74
2019-05-19T11:29:31.483Z,30.1
2019-05-19T11:30:41.460Z,30.59
2019-05-19T11:31:51.643Z,30.97
2019-05-19T11:33:01.366Z,31.25
2019-05-19T11:34:11.393Z,30.09
2019-05-19T11:35:21.356Z,30.12
2019-05-19T11:36:31.096Z,29.06
2019-05-19T11:37:40.819Z,29.36
2019-05-19T11:38:50.803Z,28.5
2019-05-19T11:40:00.282Z,28.02
2019-05-19T11:41:10.256Z,28.71
2019-05-19T11:42:20.269Z,27.92
2019-05-19T11:43:30.283Z,27.55
2019-05-19T11:44:40.261Z,27.36
2019-05-19T11:45:50.238Z,27.64
2019-05-19T11:46:59.966Z,27.26
2019-05-19T11:48:09.959Z,26.7
2019-05-19T11:49:19.958Z,26.23
2019-05-19T11:50:29.708Z,26.03
2019-05-19T11:51:39.735Z,26.12
2019-05-19T11:52:49.251Z,25.37
2019-05-19T11:53:59.209Z,25.38
2019-05-19T11:55:09.171Z,25.08
2019-05-19T11:56:19.152Z,24.91
2019-05-19T11:57:29.116Z,24.53
2019-05-19T11:58:38.594Z,25.22
2019-05-19T11:59:48.572Z,24.82
2019-05-19T12:00:58.595Z,25.03
2019-05-19T12:02:08.580Z,24.15
2019-05-19T12:03:18.539Z,23.86
2019-05-19T12:04:28.503Z,23.76
2019-05-19T12:05:38.722Z,24.26
2019-05-19T12:06:48.703Z,23.48
2019-05-19T12:07:58.674Z,23.7
2019-05-19T12:09:08.420Z,23.7
2019-05-19T12:10:18.134Z,23.5
2019-05-19T12:11:28.132Z,23.69
2019-05-19T12:12:37.873Z,23.69
2019-05-19T12:13:47.631Z,23.6
2019-05-19T12:14:57.600Z,23.6
2019-05-19T12:16:07.573Z,23.32
2019-05-19T12:17:17.057Z,23.41
2019-05-19T12:18:26.974Z,22.92
2019-05-19T12:19:36.960Z,22.73
2019-05-19T12:20:46.927Z,22.34
2019-05-19T12:21:56.949Z,22.14
2019-05-19T12:23:06.921Z,22.44
2019-05-19T12:24:16.925Z,22.23
2019-05-19T12:25:26.653Z,22.33
2019-05-19T12:26:37.421Z,23.13
2019-05-19T12:27:46.945Z,22.53
2019-05-19T12:28:56.921Z,22.24
2019-05-19T12:30:06.899Z,22.45
2019-05-19T12:31:16.888Z,22.74
2019-05-19T12:32:26.687Z,22.55
2019-05-19T12:33:49.607Z,22.34
2019-05-19T12:35:01.120Z,22.75
2019-05-19T12:36:11.129Z,22.75
2019-05-19T12:37:21.121Z,22.74
2019-05-19T12:38:31.099Z,22.73
2019-05-19T12:39:41.065Z,23.33
2019-05-19T12:40:50.801Z,22.92
2019-05-19T12:42:00.539Z,22.44
2019-05-19T12:43:10.519Z,22.24
2019-05-19T12:44:20.282Z,23.22
2019-05-19T12:45:30.335Z,22.64
2019-05-19T12:46:40.132Z,22.85
2019-05-19T12:47:49.867Z,23.15
2019-05-19T12:48:59.854Z,22.47
2019-05-19T12:50:10.208Z,22.26
2019-05-19T12:51:20.203Z,21.88
2019-05-19T12:52:32.249Z,22.56
2019-05-19T12:53:42.270Z,22.36
2019-05-19T12:54:52.092Z,23.24
2019-05-19T12:56:02.177Z,23.33
2019-05-19T12:57:11.886Z,23.33
2019-05-19T12:58:24.152Z,23.22
2019-05-19T12:59:33.883Z,23.14
2019-05-19T13:00:43.888Z,23.24
2019-05-19T13:01:53.865Z,23.72
2019-05-19T13:03:03.661Z,23.33
2019-05-19T13:04:13.491Z,23.33
2019-05-19T13:05:23.603Z,23.72
2019-05-19T13:06:33.589Z,23.24
2019-05-19T13:07:43.575Z,22.74
2019-05-19T13:08:53.332Z,22.85
2019-05-19T13:10:03.399Z,22.66
2019-05-19T13:11:12.888Z,22.47
2019-05-19T13:12:22.615Z,21.88
2019-05-19T13:13:32.398Z,22.27
2019-05-19T13:14:42.407Z,22.56
2019-05-19T13:15:51.880Z,21.89
2019-05-19T13:17:01.850Z,21.98
2019-05-19T13:18:11.858Z,21.59
2019-05-19T13:19:21.897Z,21.59
2019-05-19T13:20:31.945Z,21.78
2019-05-19T13:21:41.920Z,22.37
2019-05-19T13:22:51.897Z,22.27
2019-05-19T13:24:01.917Z,22.27
2019-05-19T13:25:11.924Z,21.18
2019-05-19T13:26:21.728Z,21.08
2019-05-19T13:27:31.214Z,20.87
2019-05-19T13:28:40.702Z,20.68
2019-05-19T13:29:50.463Z,21.26
2019-05-19T13:31:00.447Z,21.25
2019-05-19T13:32:10.424Z,20.76
2019-05-19T13:33:20.403Z,20.17
2019-05-19T13:34:30.409Z,20.57
2019-05-19T13:35:40.155Z,21.06
2019-05-19T13:36:50.137Z,20.57
2019-05-19T13:38:00.123Z,21.08
2019-05-19T13:39:09.854Z,21.18
2019-05-19T13:40:19.849Z,20.6
2019-05-19T13:41:29.588Z,20.61
2019-05-19T13:42:39.575Z,20.6
2019-05-19T13:43:49.623Z,21.19
2019-05-19T13:45:02.321Z,21.09
2019-05-19T13:46:12.046Z,21.88
2019-05-19T13:47:21.772Z,22.04
2019-05-19T13:48:31.773Z,22.42
2019-05-19T13:49:41.565Z,23.29
2019-05-19T13:50:51.579Z,23.77
2019-05-19T13:52:01.326Z,23.57
2019-05-19T13:53:11.342Z,24.05
2019-05-19T13:54:21.057Z,24.34
2019-05-19T13:55:30.793Z,23.75
2019-05-19T13:56:40.773Z,24.34
2019-05-19T13:57:50.523Z,24.02
2019-05-19T13:59:00.244Z,24.52
2019-05-19T14:00:10.250Z,24.91
2019-05-19T14:01:30.671Z,25.77
2019-05-19T14:02:40.453Z,26.04
2019-05-19T14:03:52.206Z,26.41
2019-05-19T14:05:02.292Z,26.7
2019-05-19T14:06:12.288Z,26.98
2019-05-19T14:07:22.268Z,27.37
2019-05-19T14:08:32.251Z,29.14
2019-05-19T14:09:42.282Z,30.12
2019-05-19T14:10:52.296Z,31.77
2019-05-19T14:12:02.294Z,32.66
2019-05-19T14:13:12.263Z,33.25
2019-05-19T14:14:22.247Z,32.57
2019-05-19T14:15:31.768Z,32.78
2019-05-19T14:16:41.474Z,33.38
2019-05-19T14:17:51.213Z,33.67
2019-05-19T14:19:01.219Z,35.64
2019-05-19T14:20:11.007Z,38.21
2019-05-19T14:21:21.013Z,46.04
2019-05-19T14:22:31.284Z,49.77
2019-05-19T14:23:41.259Z,49.53
2019-05-19T14:24:51.248Z,48.94
2019-05-19T14:26:01.228Z,47.77
2019-05-19T14:27:12.988Z,45
2019-05-19T14:28:36.870Z,46.05
2019-05-19T14:29:46.844Z,45.54
2019-05-19T14:30:56.826Z,45.42
2019-05-19T14:32:06.343Z,46.01
2019-05-19T14:33:16.431Z,45.52
2019-05-19T14:34:26.164Z,45.59
2019-05-19T14:35:36.140Z,46.86
2019-05-19T14:36:45.884Z,47.26
2019-05-19T14:37:55.863Z,47.36
2019-05-19T14:39:08.413Z,45.42
2019-05-19T14:40:18.385Z,45.2
2019-05-19T14:41:36.167Z,44.03
2019-05-19T14:42:46.143Z,46.77
2019-05-19T14:43:56.170Z,49.87
2019-05-19T14:45:06.144Z,53.47
2019-05-19T14:46:16.135Z,59.92
2019-05-19T14:47:26.388Z,61.48
2019-05-19T14:48:36.649Z,68.98
2019-05-19T14:49:48.092Z,65.04
2019-05-19T14:50:58.063Z,64.71
2019-05-19T14:52:07.792Z,64.19
2019-05-19T14:53:17.820Z,75.53
2019-05-19T14:54:27.881Z,79.59
2019-05-19T14:55:37.374Z,88.41
2019-05-19T14:56:47.341Z,99.9
2019-05-19T14:57:57.389Z,99.99
2019-05-19T14:59:07.385Z,99.99
2019-05-19T15:00:17.417Z,99.99
2019-05-19T15:01:27.191Z,99.99
2019-05-19T15:02:37.161Z,99.99
2019-05-19T15:03:46.652Z,99.99
2019-05-19T15:04:56.360Z,99.99
2019-05-19T15:06:06.326Z,99.99